Brownfield, ME (04010)

6:11 PM EDT on October 23, 2014 (GMT -0400)
misty lane | Change Station
CLOSE
Current Station
Personal Weather Station
Location: Brownfield, ME
Elevation: 404 ft
Nearby Weather Stations

Elev 404 ft 43.94 °N, 70.87 °W | Updated 3 minutes ago

Overcast
Overcast
49.2 °F
Feels Like 49 °F
N
2.0
Wind Variable Wind from West
Gusts 6.0 mph

Today
High -- | Low -- °F
--% Chance of Precip.
Yesterday
High -- | Low -- °F
Precip. -- in
7:08 AM 5:47 PM
New Moon, 0% visible
Pressure 29.81 in
Visibility 9.0 miles
Clouds Overcast 2000 ft
Windchill 49 °F
Dew Point 47 °F
Humidity 93%
Rainfall 0.95 in
Snow Depth Not available.
UV 0 out of 12
Pollen .10 out of 12
Air Quality Not available.
Flu Activity Sporadic
METAR KIZG 232154Z AUTO 35007KT 9SM -RA OVC020 09/08 A2980 RMK AO2 RAB44 SLP093 P0001 T00940078

More Conditions Fewer Conditions

Pressure 29.81 in
Visibility 9.0 miles
Clouds Overcast 2000 ft
Windchill 49 °F
Dew Point 47 °F
Humidity 93%
Rainfall 0.95 in
Snow Depth Not available.
UV 0 out of 12
Pollen .10 out of 12
Air Quality Not available.
Flu Activity Sporadic
METAR KIZG 232154Z AUTO 35007KT 9SM -RA OVC020 09/08 A2980 RMK AO2 RAB44 SLP093 P0001 T00940078

More Conditions Fewer Conditions

10-Day Weather Forecast

Almanac

Astronomy

Oct. 23, 2014 Rise Set
Actual Time 7:08 AM EDT 5:47 PM EDT
Civil Twilight 6:38 AM EDT 6:16 PM EDT
Nautical Twilight 6:05 AM EDT 6:50 PM EDT
Astronomical Twilight 5:31 AM EDT 7:23 PM EDT
Moon 6:44 AM EDT 5:46 PM EDT
Length of Visible Light 11h 37m
Length of Day
10h 38m
Tomorrow will be 2m 49s shorter.
New Moon, 0% of the Moon is Illuminated
Today
New Moon
Oct 30
First Quarter
Nov 6
Full
Nov 14
Last Quarter
Nov 22
New

Today's Extremes

State Highs State Lows

Community

WunderPhotos

Upload Photos

1,764,383 photos uploaded!

WunderBlogs® & News

Nearby

Air Quality

  Air Quality AQ Index Pollutant
Thursday Good
OZONE
Thursday Good
PM2.5
Friday Good
OZONE
Friday Good
PM2.5
Saturday Good
OZONE
Saturday Good
PM2.5

Snow Depth

Station Depth Elevation
No new snow has been reported.

Earthquake Activity

City Distance Mag. Time & Date
No recent earthquake activity has been reported nearby.
Minimum magnitude displayed is 2.5.

Coastal Water Temperatures

Place Temperature
No Stations Reporting

Nearby Weather Stations